Flag for Spain

Past Weather in Bilbao, Basque Country, Spain — April 2018

Currently: 59 °F. Broken clouds. (Weather station: Bilbao / Sondica, Spain). See more current weather

April 2018 Weather in Bilbao — Graph

°F

High & Low Weather Summary for April 2018

 TemperatureHumidityPressure
High88 °F (Apr 18, 4:30 pm)100% (Apr 8, 12:30 am)30.30 "Hg (Apr 8, 12:30 am)
Low41 °F (Apr 1, 3:00 am)26% (Apr 21, 3:30 pm)29.42 "Hg (Apr 10, 4:00 pm)
Average58 °F74%29.89 "Hg
* Reported Apr 1 12:00 am — Apr 30 11:30 pm, Bilbao. Weather by CustomWeather, © 2021

Note: Actual official high and low records may vary slightly from our data, if they occured in-between our weather recording intervals... More about our weather records

Bilbao Weather History for April 1, 2018

Scroll right to see more
 ConditionsComfort  
Time TempWeatherWind HumidityBarometerVisibility
12:00 am
Sun, Apr 1
45 °FPassing clouds.3 mph87%30.04 "HgN/A
12:30 am45 °FQuite cool.5 mph87%30.04 "HgN/A
1:00 am43 °FQuite cool.No wind87%30.07 "HgN/A
1:30 am43 °FQuite cool.2 mph93%30.07 "HgN/A
2:30 am43 °FQuite cool.No wind87%30.04 "HgN/A
3:00 am41 °FQuite cool.No wind93%30.04 "HgN/A
3:30 am41 °FClear.No wind93%30.04 "Hg10 mi
4:00 am43 °FPassing clouds.3 mph87%30.04 "HgN/A
4:30 am43 °FClear.2 mph87%30.04 "Hg10 mi
5:00 am41 °FClear.2 mph93%30.01 "Hg10 mi
5:30 am41 °FPassing clouds.5 mph93%30.01 "HgN/A
6:00 am43 °FClear.7 mph87%30.01 "Hg10 mi
6:30 am43 °FClear.7 mph93%30.01 "Hg10 mi
7:00 am43 °FClear.8 mph87%29.98 "Hg10 mi
7:30 am43 °FClear.7 mph87%29.98 "Hg10 mi
8:00 am43 °FSunny.7 mph93%29.98 "Hg10 mi
8:30 am45 °FPassing clouds.5 mph87%29.98 "HgN/A
9:00 am46 °FSunny.6 mph82%29.98 "Hg10 mi
9:30 am48 °FSunny.5 mph76%29.98 "Hg10 mi
10:00 am52 °FPassing clouds.5 mph67%29.98 "HgN/A
10:30 am54 °FPassing clouds.5 mph63%29.98 "HgN/A
11:00 am55 °FPassing clouds.6 mph59%29.98 "HgN/A
11:30 am59 °FSunny.7 mph55%29.98 "Hg10 mi
12:00 pm61 °FPassing clouds.10 mph52%29.95 "HgN/A
12:30 pm64 °FPassing clouds.7 mph49%29.95 "HgN/A
1:00 pm64 °FPassing clouds.8 mph46%29.92 "HgN/A
1:30 pm66 °FPassing clouds.10 mph43%29.92 "HgN/A
2:00 pm66 °FPassing clouds.9 mph46%29.92 "HgN/A
2:30 pm68 °FPassing clouds.8 mph43%29.89 "HgN/A
3:00 pm68 °FPassing clouds.7 mph43%29.89 "HgN/A
3:30 pm68 °FPassing clouds.6 mph43%29.89 "HgN/A
4:00 pm68 °FPassing clouds.8 mph43%29.86 "HgN/A
4:30 pm68 °FPassing clouds.7 mph43%29.86 "HgN/A
6:30 pm66 °FPassing clouds.8 mph43%29.80 "HgN/A
7:00 pm66 °FPassing clouds.6 mph46%29.80 "HgN/A
7:30 pm66 °FPassing clouds.6 mph46%29.80 "HgN/A
8:00 pm64 °FSunny.8 mph49%29.80 "Hg10 mi
8:30 pm64 °FSunny.9 mph46%29.77 "Hg10 mi
9:00 pm63 °FClear.9 mph52%29.77 "Hg10 mi
9:30 pm63 °FPassing clouds.8 mph52%29.77 "HgN/A
10:00 pm64 °FClear.9 mph49%29.77 "Hg10 mi
10:30 pm64 °FPassing clouds.17 mph46%29.74 "HgN/A
11:00 pm64 °FPassing clouds.15 mph46%29.77 "HgN/A
11:30 pm64 °FPassing clouds.13 mph43%29.77 "HgN/A
Weather by CustomWeather, © 2021

See weather overview